sensor_id;sensor_type;location;lat;lon;timestamp;P1;durP1;ratioP1;P2;durP2;ratioP2
40611;SDS011;26317;44.894;20.286;2024-03-25T00:01:02;28.25;;;19.58;;
40611;SDS011;26317;44.894;20.286;2024-03-25T00:03:34;28.92;;;18.23;;
40611;SDS011;26317;44.894;20.286;2024-03-25T00:06:04;28.00;;;19.20;;
40611;SDS011;26317;44.894;20.286;2024-03-25T00:08:40;29.05;;;20.55;;
40611;SDS011;26317;44.894;20.286;2024-03-25T00:11:14;28.50;;;19.48;;
40611;SDS011;26317;44.894;20.286;2024-03-25T00:13:44;26.73;;;18.15;;
40611;SDS011;26317;44.894;20.286;2024-03-25T00:16:14;27.85;;;18.90;;
40611;SDS011;26317;44.894;20.286;2024-03-25T00:18:44;27.70;;;20.15;;
40611;SDS011;26317;44.894;20.286;2024-03-25T00:21:12;26.00;;;19.30;;
40611;SDS011;26317;44.894;20.286;2024-03-25T00:26:29;25.90;;;19.15;;
40611;SDS011;26317;44.894;20.286;2024-03-25T00:29:13;37.55;;;21.35;;
40611;SDS011;26317;44.894;20.286;2024-03-25T00:31:43;37.22;;;22.55;;
40611;SDS011;26317;44.894;20.286;2024-03-25T00:34:17;41.25;;;23.80;;
40611;SDS011;26317;44.894;20.286;2024-03-25T00:36:52;27.17;;;21.63;;
40611;SDS011;26317;44.894;20.286;2024-03-25T00:39:23;32.80;;;22.77;;
40611;SDS011;26317;44.894;20.286;2024-03-25T00:42:00;33.20;;;23.08;;
40611;SDS011;26317;44.894;20.286;2024-03-25T00:44:28;42.25;;;24.05;;
40611;SDS011;26317;44.894;20.286;2024-03-25T00:46:57;30.20;;;23.33;;
40611;SDS011;26317;44.894;20.286;2024-03-25T00:49:27;32.42;;;24.00;;
40611;SDS011;26317;44.894;20.286;2024-03-25T00:52:00;30.07;;;20.77;;
40611;SDS011;26317;44.894;20.286;2024-03-25T00:57:12;23.95;;;18.17;;
40611;SDS011;26317;44.894;20.286;2024-03-25T00:59:43;23.55;;;19.33;;
40611;SDS011;26317;44.894;20.286;2024-03-25T01:02:26;24.02;;;19.77;;
40611;SDS011;26317;44.894;20.286;2024-03-25T01:04:57;25.83;;;19.83;;
40611;SDS011;26317;44.894;20.286;2024-03-25T01:09:57;22.10;;;18.52;;
40611;SDS011;26317;44.894;20.286;2024-03-25T01:12:43;23.10;;;19.13;;
40611;SDS011;26317;44.894;20.286;2024-03-25T01:15:12;28.40;;;20.52;;
40611;SDS011;26317;44.894;20.286;2024-03-25T01:17:45;24.52;;;19.25;;
40611;SDS011;26317;44.894;20.286;2024-03-25T01:20:13;27.10;;;20.20;;
40611;SDS011;26317;44.894;20.286;2024-03-25T01:22:43;28.27;;;20.73;;
40611;SDS011;26317;44.894;20.286;2024-03-25T01:25:17;22.67;;;18.33;;
40611;SDS011;26317;44.894;20.286;2024-03-25T01:27:55;21.65;;;19.05;;
40611;SDS011;26317;44.894;20.286;2024-03-25T01:30:36;23.65;;;19.05;;
40611;SDS011;26317;44.894;20.286;2024-03-25T01:33:06;23.05;;;19.52;;
40611;SDS011;26317;44.894;20.286;2024-03-25T01:35:34;22.27;;;18.73;;
40611;SDS011;26317;44.894;20.286;2024-03-25T01:38:10;23.42;;;18.83;;
40611;SDS011;26317;44.894;20.286;2024-03-25T01:40:41;22.95;;;19.50;;
40611;SDS011;26317;44.894;20.286;2024-03-25T01:43:20;22.88;;;19.42;;
40611;SDS011;26317;44.894;20.286;2024-03-25T01:45:56;25.88;;;21.13;;
40611;SDS011;26317;44.894;20.286;2024-03-25T01:48:25;23.05;;;19.63;;
40611;SDS011;26317;44.894;20.286;2024-03-25T01:50:55;22.45;;;19.42;;
40611;SDS011;26317;44.894;20.286;2024-03-25T01:53:25;22.10;;;19.70;;
40611;SDS011;26317;44.894;20.286;2024-03-25T01:55:59;23.60;;;19.90;;
40611;SDS011;26317;44.894;20.286;2024-03-25T01:58:35;22.65;;;20.17;;
40611;SDS011;26317;44.894;20.286;2024-03-25T02:01:11;23.65;;;19.95;;
40611;SDS011;26317;44.894;20.286;2024-03-25T02:03:41;26.73;;;21.23;;
40611;SDS011;26317;44.894;20.286;2024-03-25T02:06:24;24.15;;;21.25;;
40611;SDS011;26317;44.894;20.286;2024-03-25T02:09:00;25.90;;;22.33;;
40611;SDS011;26317;44.894;20.286;2024-03-25T02:11:32;27.88;;;24.88;;
40611;SDS011;26317;44.894;20.286;2024-03-25T02:14:11;26.42;;;23.52;;
40611;SDS011;26317;44.894;20.286;2024-03-25T02:16:55;29.38;;;24.48;;
40611;SDS011;26317;44.894;20.286;2024-03-25T02:19:23;28.10;;;25.10;;
40611;SDS011;26317;44.894;20.286;2024-03-25T02:21:53;28.17;;;25.25;;
40611;SDS011;26317;44.894;20.286;2024-03-25T02:24:22;28.33;;;25.17;;
40611;SDS011;26317;44.894;20.286;2024-03-25T02:26:58;30.92;;;26.40;;
40611;SDS011;26317;44.894;20.286;2024-03-25T02:29:35;27.95;;;24.98;;
40611;SDS011;26317;44.894;20.286;2024-03-25T02:32:06;28.65;;;25.58;;
40611;SDS011;26317;44.894;20.286;2024-03-25T02:34:36;31.67;;;25.83;;
40611;SDS011;26317;44.894;20.286;2024-03-25T02:37:08;30.58;;;27.17;;
40611;SDS011;26317;44.894;20.286;2024-03-25T02:39:37;31.13;;;26.63;;
40611;SDS011;26317;44.894;20.286;2024-03-25T02:42:31;33.67;;;27.58;;
40611;SDS011;26317;44.894;20.286;2024-03-25T02:45:05;30.33;;;26.65;;
40611;SDS011;26317;44.894;20.286;2024-03-25T02:47:52;31.38;;;27.55;;
40611;SDS011;26317;44.894;20.286;2024-03-25T02:50:21;34.80;;;27.95;;
40611;SDS011;26317;44.894;20.286;2024-03-25T02:52:53;44.47;;;30.67;;
40611;SDS011;26317;44.894;20.286;2024-03-25T02:55:26;33.03;;;29.05;;
40611;SDS011;26317;44.894;20.286;2024-03-25T02:58:00;36.30;;;29.45;;
40611;SDS011;26317;44.894;20.286;2024-03-25T03:00:33;33.65;;;28.10;;
40611;SDS011;26317;44.894;20.286;2024-03-25T03:03:04;35.53;;;29.73;;
40611;SDS011;26317;44.894;20.286;2024-03-25T03:05:34;36.63;;;30.48;;
40611;SDS011;26317;44.894;20.286;2024-03-25T03:08:02;36.00;;;30.10;;
40611;SDS011;26317;44.894;20.286;2024-03-25T03:10:35;34.72;;;28.83;;
40611;SDS011;26317;44.894;20.286;2024-03-25T03:13:13;34.90;;;31.02;;
40611;SDS011;26317;44.894;20.286;2024-03-25T03:15:43;38.00;;;30.20;;
40611;SDS011;26317;44.894;20.286;2024-03-25T03:18:16;37.03;;;30.05;;
40611;SDS011;26317;44.894;20.286;2024-03-25T03:20:49;35.33;;;28.63;;
40611;SDS011;26317;44.894;20.286;2024-03-25T03:23:22;35.90;;;29.20;;
40611;SDS011;26317;44.894;20.286;2024-03-25T03:26:06;34.55;;;29.10;;
40611;SDS011;26317;44.894;20.286;2024-03-25T03:28:42;31.75;;;27.95;;
40611;SDS011;26317;44.894;20.286;2024-03-25T03:31:10;36.58;;;28.30;;
40611;SDS011;26317;44.894;20.286;2024-03-25T03:33:38;32.95;;;28.65;;
40611;SDS011;26317;44.894;20.286;2024-03-25T03:36:10;30.80;;;26.88;;
40611;SDS011;26317;44.894;20.286;2024-03-25T03:38:41;33.13;;;28.33;;
40611;SDS011;26317;44.894;20.286;2024-03-25T03:41:09;34.40;;;28.20;;
40611;SDS011;26317;44.894;20.286;2024-03-25T03:43:55;30.80;;;27.48;;
40611;SDS011;26317;44.894;20.286;2024-03-25T03:46:29;31.88;;;28.25;;
40611;SDS011;26317;44.894;20.286;2024-03-25T03:49:00;31.83;;;25.90;;
40611;SDS011;26317;44.894;20.286;2024-03-25T03:51:32;32.95;;;28.25;;
40611;SDS011;26317;44.894;20.286;2024-03-25T03:54:00;31.23;;;26.20;;
40611;SDS011;26317;44.894;20.286;2024-03-25T03:56:34;34.70;;;28.45;;
40611;SDS011;26317;44.894;20.286;2024-03-25T03:59:14;32.20;;;27.73;;
40611;SDS011;26317;44.894;20.286;2024-03-25T04:01:47;32.67;;;26.40;;
40611;SDS011;26317;44.894;20.286;2024-03-25T04:04:22;31.38;;;26.33;;
40611;SDS011;26317;44.894;20.286;2024-03-25T04:06:55;35.33;;;28.35;;
40611;SDS011;26317;44.894;20.286;2024-03-25T04:09:28;34.22;;;27.30;;
40611;SDS011;26317;44.894;20.286;2024-03-25T04:12:08;35.67;;;28.08;;
40611;SDS011;26317;44.894;20.286;2024-03-25T04:14:55;34.60;;;27.80;;
40611;SDS011;26317;44.894;20.286;2024-03-25T04:17:26;35.60;;;29.35;;
40611;SDS011;26317;44.894;20.286;2024-03-25T04:19:58;32.53;;;27.08;;
40611;SDS011;26317;44.894;20.286;2024-03-25T04:22:36;35.65;;;28.00;;
40611;SDS011;26317;44.894;20.286;2024-03-25T04:25:10;35.42;;;28.13;;
40611;SDS011;26317;44.894;20.286;2024-03-25T04:27:47;35.95;;;28.95;;
40611;SDS011;26317;44.894;20.286;2024-03-25T04:30:27;34.65;;;29.30;;
40611;SDS011;26317;44.894;20.286;2024-03-25T04:33:00;34.63;;;28.83;;
40611;SDS011;26317;44.894;20.286;2024-03-25T04:35:29;36.17;;;28.65;;
40611;SDS011;26317;44.894;20.286;2024-03-25T04:37:58;33.30;;;27.88;;
40611;SDS011;26317;44.894;20.286;2024-03-25T04:40:29;40.92;;;30.48;;
40611;SDS011;26317;44.894;20.286;2024-03-25T04:43:12;38.22;;;30.17;;
40611;SDS011;26317;44.894;20.286;2024-03-25T04:45:55;36.65;;;30.23;;
40611;SDS011;26317;44.894;20.286;2024-03-25T04:48:23;39.08;;;31.40;;
40611;SDS011;26317;44.894;20.286;2024-03-25T04:50:55;37.97;;;30.95;;
40611;SDS011;26317;44.894;20.286;2024-03-25T04:53:33;37.00;;;29.92;;
40611;SDS011;26317;44.894;20.286;2024-03-25T04:56:01;37.63;;;28.67;;
40611;SDS011;26317;44.894;20.286;2024-03-25T04:58:33;43.80;;;30.60;;
40611;SDS011;26317;44.894;20.286;2024-03-25T05:01:15;38.80;;;30.30;;
40611;SDS011;26317;44.894;20.286;2024-03-25T05:03:46;41.67;;;30.90;;
40611;SDS011;26317;44.894;20.286;2024-03-25T05:06:15;35.25;;;30.27;;
40611;SDS011;26317;44.894;20.286;2024-03-25T05:08:45;40.47;;;30.75;;
40611;SDS011;26317;44.894;20.286;2024-03-25T05:11:18;37.00;;;29.48;;
40611;SDS011;26317;44.894;20.286;2024-03-25T05:14:06;39.78;;;30.48;;
40611;SDS011;26317;44.894;20.286;2024-03-25T05:16:55;37.28;;;26.60;;
40611;SDS011;26317;44.894;20.286;2024-03-25T05:19:24;36.55;;;28.27;;
40611;SDS011;26317;44.894;20.286;2024-03-25T05:21:56;53.47;;;35.70;;
40611;SDS011;26317;44.894;20.286;2024-03-25T05:24:37;39.22;;;31.33;;
40611;SDS011;26317;44.894;20.286;2024-03-25T05:27:09;39.70;;;29.08;;
40611;SDS011;26317;44.894;20.286;2024-03-25T05:29:40;41.42;;;28.80;;
40611;SDS011;26317;44.894;20.286;2024-03-25T05:32:18;37.95;;;28.20;;
40611;SDS011;26317;44.894;20.286;2024-03-25T05:34:54;37.05;;;27.55;;
40611;SDS011;26317;44.894;20.286;2024-03-25T05:37:27;39.88;;;28.15;;
40611;SDS011;26317;44.894;20.286;2024-03-25T05:39:55;35.75;;;26.98;;
40611;SDS011;26317;44.894;20.286;2024-03-25T05:42:34;40.65;;;27.75;;
40611;SDS011;26317;44.894;20.286;2024-03-25T05:45:01;37.33;;;27.23;;
40611;SDS011;26317;44.894;20.286;2024-03-25T05:47:32;37.00;;;28.20;;
40611;SDS011;26317;44.894;20.286;2024-03-25T05:50:04;34.75;;;26.30;;
40611;SDS011;26317;44.894;20.286;2024-03-25T05:52:35;39.97;;;30.00;;
40611;SDS011;26317;44.894;20.286;2024-03-25T05:55:04;36.53;;;27.20;;
40611;SDS011;26317;44.894;20.286;2024-03-25T05:57:40;37.97;;;29.85;;
40611;SDS011;26317;44.894;20.286;2024-03-25T06:00:13;37.25;;;28.70;;
40611;SDS011;26317;44.894;20.286;2024-03-25T06:02:57;40.85;;;28.40;;
40611;SDS011;26317;44.894;20.286;2024-03-25T06:05:28;39.88;;;27.98;;
40611;SDS011;26317;44.894;20.286;2024-03-25T06:07:58;39.05;;;28.65;;
40611;SDS011;26317;44.894;20.286;2024-03-25T06:10:47;37.87;;;27.97;;
40611;SDS011;26317;44.894;20.286;2024-03-25T06:13:22;38.72;;;29.58;;
40611;SDS011;26317;44.894;20.286;2024-03-25T06:15:54;38.83;;;29.40;;
40611;SDS011;26317;44.894;20.286;2024-03-25T06:21:05;43.83;;;29.92;;
40611;SDS011;26317;44.894;20.286;2024-03-25T06:23:36;38.70;;;30.83;;
40611;SDS011;26317;44.894;20.286;2024-03-25T06:26:05;40.90;;;31.48;;
40611;SDS011;26317;44.894;20.286;2024-03-25T06:28:34;40.80;;;30.95;;
40611;SDS011;26317;44.894;20.286;2024-03-25T06:31:02;37.50;;;27.17;;
40611;SDS011;26317;44.894;20.286;2024-03-25T06:33:59;40.50;;;27.58;;
40611;SDS011;26317;44.894;20.286;2024-03-25T06:36:45;37.17;;;28.60;;
40611;SDS011;26317;44.894;20.286;2024-03-25T06:39:16;40.20;;;29.98;;
40611;SDS011;26317;44.894;20.286;2024-03-25T06:42:05;58.70;;;41.22;;
40611;SDS011;26317;44.894;20.286;2024-03-25T06:44:35;38.85;;;29.08;;
40611;SDS011;26317;44.894;20.286;2024-03-25T06:47:08;37.60;;;28.40;;
40611;SDS011;26317;44.894;20.286;2024-03-25T06:49:52;37.97;;;29.13;;
40611;SDS011;26317;44.894;20.286;2024-03-25T06:52:26;37.35;;;30.60;;
40611;SDS011;26317;44.894;20.286;2024-03-25T06:54:58;40.85;;;31.08;;
40611;SDS011;26317;44.894;20.286;2024-03-25T06:57:32;36.45;;;29.02;;
40611;SDS011;26317;44.894;20.286;2024-03-25T07:00:07;56.95;;;42.03;;
40611;SDS011;26317;44.894;20.286;2024-03-25T07:02:39;40.65;;;30.65;;
40611;SDS011;26317;44.894;20.286;2024-03-25T07:05:18;37.22;;;28.10;;
40611;SDS011;26317;44.894;20.286;2024-03-25T07:07:46;38.67;;;30.40;;
40611;SDS011;26317;44.894;20.286;2024-03-25T07:10:18;42.80;;;30.60;;
40611;SDS011;26317;44.894;20.286;2024-03-25T07:15:29;42.15;;;28.90;;
40611;SDS011;26317;44.894;20.286;2024-03-25T07:18:09;37.70;;;27.25;;
40611;SDS011;26317;44.894;20.286;2024-03-25T07:20:45;36.28;;;26.90;;
40611;SDS011;26317;44.894;20.286;2024-03-25T07:23:16;35.55;;;29.17;;
40611;SDS011;26317;44.894;20.286;2024-03-25T07:25:49;40.93;;;32.23;;
40611;SDS011;26317;44.894;20.286;2024-03-25T07:28:23;39.72;;;30.67;;
40611;SDS011;26317;44.894;20.286;2024-03-25T07:31:06;35.67;;;27.77;;
40611;SDS011;26317;44.894;20.286;2024-03-25T07:33:40;34.38;;;25.90;;
40611;SDS011;26317;44.894;20.286;2024-03-25T07:36:23;33.95;;;26.00;;
40611;SDS011;26317;44.894;20.286;2024-03-25T07:38:55;36.33;;;28.15;;
40611;SDS011;26317;44.894;20.286;2024-03-25T07:41:22;37.28;;;28.48;;
40611;SDS011;26317;44.894;20.286;2024-03-25T07:43:50;35.35;;;26.38;;
40611;SDS011;26317;44.894;20.286;2024-03-25T07:46:24;29.02;;;22.65;;
40611;SDS011;26317;44.894;20.286;2024-03-25T07:48:54;33.42;;;23.05;;
40611;SDS011;26317;44.894;20.286;2024-03-25T07:51:35;29.48;;;21.25;;
40611;SDS011;26317;44.894;20.286;2024-03-25T07:54:08;29.98;;;21.13;;
40611;SDS011;26317;44.894;20.286;2024-03-25T07:56:42;31.35;;;22.27;;
40611;SDS011;26317;44.894;20.286;2024-03-25T07:59:15;33.80;;;24.02;;
40611;SDS011;26317;44.894;20.286;2024-03-25T08:01:47;28.67;;;21.63;;
40611;SDS011;26317;44.894;20.286;2024-03-25T08:04:19;35.45;;;23.90;;
40611;SDS011;26317;44.894;20.286;2024-03-25T08:09:42;27.83;;;22.05;;
40611;SDS011;26317;44.894;20.286;2024-03-25T08:12:11;34.55;;;24.90;;
40611;SDS011;26317;44.894;20.286;2024-03-25T08:14:42;31.45;;;22.88;;
40611;SDS011;26317;44.894;20.286;2024-03-25T08:17:12;37.60;;;23.23;;
40611;SDS011;26317;44.894;20.286;2024-03-25T08:19:47;37.03;;;23.63;;
40611;SDS011;26317;44.894;20.286;2024-03-25T08:22:29;33.25;;;23.00;;
40611;SDS011;26317;44.894;20.286;2024-03-25T08:25:10;30.90;;;22.50;;
40611;SDS011;26317;44.894;20.286;2024-03-25T08:27:39;32.10;;;23.48;;
40611;SDS011;26317;44.894;20.286;2024-03-25T08:30:13;32.83;;;21.20;;
40611;SDS011;26317;44.894;20.286;2024-03-25T08:32:42;31.88;;;21.88;;
40611;SDS011;26317;44.894;20.286;2024-03-25T08:35:16;29.70;;;20.13;;
40611;SDS011;26317;44.894;20.286;2024-03-25T08:37:51;20.38;;;16.17;;
40611;SDS011;26317;44.894;20.286;2024-03-25T08:40:23;24.25;;;17.20;;
40611;SDS011;26317;44.894;20.286;2024-03-25T08:42:55;21.40;;;15.95;;
40611;SDS011;26317;44.894;20.286;2024-03-25T08:45:23;23.63;;;15.05;;
40611;SDS011;26317;44.894;20.286;2024-03-25T08:48:01;21.90;;;15.48;;
40611;SDS011;26317;44.894;20.286;2024-03-25T08:50:32;21.98;;;14.82;;
40611;SDS011;26317;44.894;20.286;2024-03-25T08:53:05;18.55;;;15.10;;
40611;SDS011;26317;44.894;20.286;2024-03-25T08:55:43;15.52;;;12.45;;
40611;SDS011;26317;44.894;20.286;2024-03-25T08:58:16;19.83;;;13.23;;
40611;SDS011;26317;44.894;20.286;2024-03-25T09:00:44;25.83;;;16.63;;
40611;SDS011;26317;44.894;20.286;2024-03-25T09:03:14;18.77;;;13.30;;
40611;SDS011;26317;44.894;20.286;2024-03-25T09:05:47;59.92;;;34.47;;
40611;SDS011;26317;44.894;20.286;2024-03-25T09:08:22;44.63;;;29.15;;
40611;SDS011;26317;44.894;20.286;2024-03-25T09:10:55;20.48;;;11.43;;
40611;SDS011;26317;44.894;20.286;2024-03-25T09:13:33;11.63;;;8.85;;
40611;SDS011;26317;44.894;20.286;2024-03-25T09:16:09;9.88;;;8.02;;
40611;SDS011;26317;44.894;20.286;2024-03-25T09:18:44;9.05;;;7.65;;
40611;SDS011;26317;44.894;20.286;2024-03-25T09:21:12;13.57;;;7.82;;
40611;SDS011;26317;44.894;20.286;2024-03-25T09:26:25;11.43;;;7.07;;
40611;SDS011;26317;44.894;20.286;2024-03-25T09:28:58;12.13;;;7.82;;
40611;SDS011;26317;44.894;20.286;2024-03-25T09:31:34;8.40;;;6.18;;
40611;SDS011;26317;44.894;20.286;2024-03-25T09:34:09;9.40;;;6.75;;
40611;SDS011;26317;44.894;20.286;2024-03-25T09:36:46;8.45;;;6.10;;
40611;SDS011;26317;44.894;20.286;2024-03-25T09:39:17;11.90;;;6.75;;
40611;SDS011;26317;44.894;20.286;2024-03-25T09:42:07;7.47;;;5.38;;
40611;SDS011;26317;44.894;20.286;2024-03-25T09:44:39;8.88;;;7.50;;
40611;SDS011;26317;44.894;20.286;2024-03-25T09:47:10;5.65;;;5.07;;
40611;SDS011;26317;44.894;20.286;2024-03-25T09:49:54;9.43;;;4.88;;
40611;SDS011;26317;44.894;20.286;2024-03-25T09:52:26;7.55;;;4.60;;
40611;SDS011;26317;44.894;20.286;2024-03-25T09:55:01;7.80;;;5.00;;
40611;SDS011;26317;44.894;20.286;2024-03-25T09:57:42;5.88;;;4.85;;
40611;SDS011;26317;44.894;20.286;2024-03-25T10:00:16;7.43;;;4.82;;
40611;SDS011;26317;44.894;20.286;2024-03-25T10:02:44;7.07;;;4.60;;
40611;SDS011;26317;44.894;20.286;2024-03-25T10:05:17;7.13;;;4.60;;
40611;SDS011;26317;44.894;20.286;2024-03-25T10:07:47;11.10;;;5.30;;
40611;SDS011;26317;44.894;20.286;2024-03-25T10:10:33;6.75;;;5.00;;
40611;SDS011;26317;44.894;20.286;2024-03-25T10:13:04;3.75;;;3.25;;
40611;SDS011;26317;44.894;20.286;2024-03-25T10:15:38;6.72;;;5.05;;
40611;SDS011;26317;44.894;20.286;2024-03-25T10:18:11;7.00;;;5.03;;
40611;SDS011;26317;44.894;20.286;2024-03-25T10:20:47;8.15;;;4.60;;
40611;SDS011;26317;44.894;20.286;2024-03-25T10:23:15;5.97;;;4.28;;
40611;SDS011;26317;44.894;20.286;2024-03-25T10:26:01;5.85;;;3.92;;
40611;SDS011;26317;44.894;20.286;2024-03-25T10:28:32;5.82;;;4.28;;
40611;SDS011;26317;44.894;20.286;2024-03-25T10:31:03;7.00;;;3.83;;
40611;SDS011;26317;44.894;20.286;2024-03-25T10:33:31;6.43;;;3.53;;
40611;SDS011;26317;44.894;20.286;2024-03-25T10:36:04;4.93;;;3.88;;
40611;SDS011;26317;44.894;20.286;2024-03-25T10:38:40;6.30;;;4.25;;
40611;SDS011;26317;44.894;20.286;2024-03-25T10:41:25;6.93;;;4.05;;
40611;SDS011;26317;44.894;20.286;2024-03-25T10:43:57;6.93;;;4.50;;
40611;SDS011;26317;44.894;20.286;2024-03-25T10:46:36;10.37;;;5.00;;
40611;SDS011;26317;44.894;20.286;2024-03-25T10:49:09;6.68;;;3.70;;
40611;SDS011;26317;44.894;20.286;2024-03-25T10:51:43;5.28;;;3.95;;
40611;SDS011;26317;44.894;20.286;2024-03-25T10:54:12;5.07;;;3.40;;
40611;SDS011;26317;44.894;20.286;2024-03-25T10:56:47;5.25;;;4.13;;
40611;SDS011;26317;44.894;20.286;2024-03-25T10:59:16;7.03;;;3.70;;
40611;SDS011;26317;44.894;20.286;2024-03-25T11:01:50;6.32;;;2.65;;
40611;SDS011;26317;44.894;20.286;2024-03-25T11:04:20;5.88;;;3.45;;
40611;SDS011;26317;44.894;20.286;2024-03-25T11:06:51;6.45;;;3.42;;
40611;SDS011;26317;44.894;20.286;2024-03-25T11:09:28;3.88;;;2.75;;
40611;SDS011;26317;44.894;20.286;2024-03-25T11:12:02;3.65;;;2.75;;
40611;SDS011;26317;44.894;20.286;2024-03-25T11:14:56;4.53;;;3.45;;
40611;SDS011;26317;44.894;20.286;2024-03-25T11:17:27;3.85;;;2.80;;
40611;SDS011;26317;44.894;20.286;2024-03-25T11:20:15;3.65;;;2.90;;
40611;SDS011;26317;44.894;20.286;2024-03-25T11:22:52;3.58;;;3.00;;
40611;SDS011;26317;44.894;20.286;2024-03-25T11:25:24;3.95;;;2.72;;
40611;SDS011;26317;44.894;20.286;2024-03-25T11:27:59;5.53;;;3.10;;
40611;SDS011;26317;44.894;20.286;2024-03-25T11:30:38;6.07;;;3.35;;
40611;SDS011;26317;44.894;20.286;2024-03-25T11:33:14;3.95;;;2.50;;
40611;SDS011;26317;44.894;20.286;2024-03-25T11:38:20;2.75;;;2.08;;
40611;SDS011;26317;44.894;20.286;2024-03-25T11:40:49;7.88;;;2.80;;
40611;SDS011;26317;44.894;20.286;2024-03-25T11:43:34;5.22;;;2.83;;
40611;SDS011;26317;44.894;20.286;2024-03-25T11:46:03;8.82;;;3.90;;
40611;SDS011;26317;44.894;20.286;2024-03-25T11:48:36;5.10;;;2.00;;
40611;SDS011;26317;44.894;20.286;2024-03-25T11:51:20;9.52;;;3.53;;
40611;SDS011;26317;44.894;20.286;2024-03-25T11:53:52;7.90;;;3.22;;
40611;SDS011;26317;44.894;20.286;2024-03-25T11:56:24;4.65;;;3.58;;
40611;SDS011;26317;44.894;20.286;2024-03-25T11:59:12;5.15;;;3.55;;
40611;SDS011;26317;44.894;20.286;2024-03-25T12:01:44;3.40;;;2.28;;
40611;SDS011;26317;44.894;20.286;2024-03-25T12:04:12;6.88;;;4.25;;
40611;SDS011;26317;44.894;20.286;2024-03-25T12:06:41;5.43;;;3.65;;
40611;SDS011;26317;44.894;20.286;2024-03-25T12:09:17;3.00;;;2.17;;
40611;SDS011;26317;44.894;20.286;2024-03-25T12:12:00;2.10;;;1.70;;
40611;SDS011;26317;44.894;20.286;2024-03-25T12:14:39;2.78;;;1.90;;
40611;SDS011;26317;44.894;20.286;2024-03-25T12:17:13;3.13;;;2.22;;
40611;SDS011;26317;44.894;20.286;2024-03-25T12:19:57;4.90;;;3.25;;
40611;SDS011;26317;44.894;20.286;2024-03-25T12:22:29;7.57;;;3.70;;
40611;SDS011;26317;44.894;20.286;2024-03-25T12:24:59;5.10;;;3.95;;
40611;SDS011;26317;44.894;20.286;2024-03-25T12:27:34;2.08;;;1.70;;
40611;SDS011;26317;44.894;20.286;2024-03-25T12:30:15;2.45;;;1.20;;
40611;SDS011;26317;44.894;20.286;2024-03-25T12:32:43;2.38;;;1.70;;
40611;SDS011;26317;44.894;20.286;2024-03-25T12:35:18;2.60;;;1.92;;
40611;SDS011;26317;44.894;20.286;2024-03-25T12:37:48;2.72;;;2.00;;
40611;SDS011;26317;44.894;20.286;2024-03-25T12:40:25;2.83;;;1.55;;
40611;SDS011;26317;44.894;20.286;2024-03-25T12:43:03;2.40;;;1.60;;
40611;SDS011;26317;44.894;20.286;2024-03-25T12:45:42;2.78;;;1.88;;
40611;SDS011;26317;44.894;20.286;2024-03-25T12:48:19;1.40;;;1.30;;
40611;SDS011;26317;44.894;20.286;2024-03-25T12:50:58;2.33;;;1.63;;
40611;SDS011;26317;44.894;20.286;2024-03-25T12:53:28;3.08;;;2.22;;
40611;SDS011;26317;44.894;20.286;2024-03-25T12:56:00;4.57;;;3.42;;
40611;SDS011;26317;44.894;20.286;2024-03-25T12:58:30;1.35;;;0.90;;
40611;SDS011;26317;44.894;20.286;2024-03-25T13:03:53;1.63;;;0.90;;
40611;SDS011;26317;44.894;20.286;2024-03-25T13:06:25;2.63;;;1.05;;
40611;SDS011;26317;44.894;20.286;2024-03-25T13:08:58;2.92;;;2.22;;
40611;SDS011;26317;44.894;20.286;2024-03-25T13:11:43;1.10;;;1.00;;
40611;SDS011;26317;44.894;20.286;2024-03-25T13:14:21;1.40;;;1.30;;
40611;SDS011;26317;44.894;20.286;2024-03-25T13:16:55;5.47;;;2.58;;
40611;SDS011;26317;44.894;20.286;2024-03-25T13:19:26;6.45;;;4.15;;
40611;SDS011;26317;44.894;20.286;2024-03-25T13:21:56;2.28;;;1.95;;
40611;SDS011;26317;44.894;20.286;2024-03-25T13:24:24;2.08;;;1.73;;
40611;SDS011;26317;44.894;20.286;2024-03-25T13:27:02;1.52;;;1.23;;
40611;SDS011;26317;44.894;20.286;2024-03-25T13:29:30;1.13;;;0.95;;
40611;SDS011;26317;44.894;20.286;2024-03-25T13:32:06;1.58;;;1.13;;
40611;SDS011;26317;44.894;20.286;2024-03-25T13:34:35;2.17;;;1.23;;
40611;SDS011;26317;44.894;20.286;2024-03-25T13:37:04;1.55;;;1.30;;
40611;SDS011;26317;44.894;20.286;2024-03-25T13:39:33;1.30;;;1.20;;
40611;SDS011;26317;44.894;20.286;2024-03-25T13:42:05;2.55;;;1.55;;
40611;SDS011;26317;44.894;20.286;2024-03-25T13:44:36;4.25;;;2.17;;
40611;SDS011;26317;44.894;20.286;2024-03-25T13:47:10;6.03;;;4.32;;
40611;SDS011;26317;44.894;20.286;2024-03-25T13:49:43;1.65;;;1.33;;
40611;SDS011;26317;44.894;20.286;2024-03-25T13:52:10;1.40;;;0.93;;
40611;SDS011;26317;44.894;20.286;2024-03-25T13:54:42;4.10;;;1.50;;
40611;SDS011;26317;44.894;20.286;2024-03-25T13:57:16;2.53;;;2.05;;
40611;SDS011;26317;44.894;20.286;2024-03-25T14:00:02;4.28;;;1.70;;
40611;SDS011;26317;44.894;20.286;2024-03-25T14:02:44;2.38;;;1.52;;
40611;SDS011;26317;44.894;20.286;2024-03-25T14:05:19;3.03;;;1.95;;
40611;SDS011;26317;44.894;20.286;2024-03-25T14:07:55;2.63;;;2.03;;
40611;SDS011;26317;44.894;20.286;2024-03-25T14:10:24;4.15;;;2.33;;
40611;SDS011;26317;44.894;20.286;2024-03-25T14:12:58;3.58;;;2.10;;
40611;SDS011;26317;44.894;20.286;2024-03-25T14:15:37;2.72;;;2.20;;
40611;SDS011;26317;44.894;20.286;2024-03-25T14:20:47;4.05;;;2.15;;
40611;SDS011;26317;44.894;20.286;2024-03-25T14:23:15;4.72;;;2.67;;
40611;SDS011;26317;44.894;20.286;2024-03-25T14:25:43;5.28;;;2.10;;
40611;SDS011;26317;44.894;20.286;2024-03-25T14:28:28;2.92;;;1.67;;
40611;SDS011;26317;44.894;20.286;2024-03-25T14:31:07;1.73;;;1.58;;
40611;SDS011;26317;44.894;20.286;2024-03-25T14:33:54;4.25;;;1.63;;
40611;SDS011;26317;44.894;20.286;2024-03-25T14:36:27;3.92;;;1.63;;
40611;SDS011;26317;44.894;20.286;2024-03-25T14:39:07;5.50;;;2.80;;
40611;SDS011;26317;44.894;20.286;2024-03-25T14:41:40;9.57;;;1.85;;
40611;SDS011;26317;44.894;20.286;2024-03-25T14:44:11;3.35;;;2.33;;
40611;SDS011;26317;44.894;20.286;2024-03-25T14:46:41;3.90;;;2.22;;
40611;SDS011;26317;44.894;20.286;2024-03-25T14:49:29;5.00;;;3.03;;
40611;SDS011;26317;44.894;20.286;2024-03-25T14:52:03;8.38;;;3.13;;
40611;SDS011;26317;44.894;20.286;2024-03-25T14:54:47;4.32;;;1.60;;
40611;SDS011;26317;44.894;20.286;2024-03-25T14:57:18;2.67;;;1.80;;
40611;SDS011;26317;44.894;20.286;2024-03-25T15:02:12;3.67;;;2.80;;
40611;SDS011;26317;44.894;20.286;2024-03-25T15:04:50;6.28;;;3.72;;
40611;SDS011;26317;44.894;20.286;2024-03-25T15:07:24;6.53;;;2.50;;
40611;SDS011;26317;44.894;20.286;2024-03-25T15:09:55;3.63;;;2.70;;
40611;SDS011;26317;44.894;20.286;2024-03-25T15:15:12;29.85;;;19.70;;
40611;SDS011;26317;44.894;20.286;2024-03-25T15:17:52;32.80;;;19.88;;
40611;SDS011;26317;44.894;20.286;2024-03-25T15:20:34;32.58;;;21.85;;
40611;SDS011;26317;44.894;20.286;2024-03-25T15:23:05;28.02;;;19.65;;
40611;SDS011;26317;44.894;20.286;2024-03-25T15:25:36;3.75;;;2.40;;
40611;SDS011;26317;44.894;20.286;2024-03-25T15:28:09;29.65;;;22.17;;
40611;SDS011;26317;44.894;20.286;2024-03-25T15:30:38;91.28;;;62.83;;